createdAt,value
2019-05-03T00:02:09.212Z,14.27
2019-05-03T00:04:43.291Z,12.50
2019-05-03T00:07:15.588Z,10.10
2019-05-03T00:09:48.381Z,9.63
2019-05-03T00:12:22.148Z,10.77
2019-05-03T00:14:57.078Z,11.90
2019-05-03T00:17:29.655Z,18.53
2019-05-03T00:20:02.307Z,5.07
2019-05-03T00:22:36.232Z,8.03
2019-05-03T00:25:08.631Z,6.30
2019-05-03T00:27:40.283Z,12.37
2019-05-03T00:30:12.036Z,12.90
2019-05-03T00:32:43.957Z,10.70
2019-05-03T00:35:22.893Z,11.33
2019-05-03T00:37:56.104Z,11.77
2019-05-03T00:40:29.083Z,11.97
2019-05-03T00:43:02.307Z,7.93
2019-05-03T00:45:33.861Z,9.33
2019-05-03T00:48:07.027Z,7.50
2019-05-03T00:50:38.759Z,7.50
2019-05-03T00:53:11.710Z,10.50
2019-05-03T00:55:43.326Z,14.90
2019-05-03T00:58:14.967Z,11.43
2019-05-03T01:00:47.708Z,10.67
2019-05-03T01:03:21.806Z,15.57
2019-05-03T01:05:53.730Z,11.50
2019-05-03T01:08:26.016Z,10.40
2019-05-03T01:10:57.770Z,11.13
2019-05-03T01:13:31.912Z,14.43
2019-05-03T01:16:09.128Z,13.00
2019-05-03T01:18:41.761Z,7.70
2019-05-03T01:21:13.339Z,16.43
2019-05-03T01:23:44.836Z,9.43
2019-05-03T01:26:16.519Z,9.77
2019-05-03T01:28:49.165Z,10.83
2019-05-03T01:31:22.671Z,12.00
2019-05-03T01:33:53.845Z,10.87
2019-05-03T01:36:25.460Z,8.93
2019-05-03T01:38:56.861Z,12.37
2019-05-03T01:41:28.575Z,8.57
2019-05-03T01:44:01.942Z,12.50
2019-05-03T01:46:33.396Z,11.53
2019-05-03T01:49:14.136Z,11.40
2019-05-03T01:52:22.496Z,10.83
2019-05-03T01:54:54.606Z,9.30
2019-05-03T01:57:26.264Z,10.40
2019-05-03T01:59:58.496Z,8.07
2019-05-03T02:02:49.190Z,12.07
2019-05-03T02:05:39.587Z,11.03
2019-05-03T02:08:12.970Z,14.70
2019-05-03T02:10:45.286Z,18.97
2019-05-03T02:13:17.170Z,11.17
2019-05-03T02:15:49.677Z,13.37
2019-05-03T02:18:22.354Z,11.47
2019-05-03T02:20:54.485Z,16.57
2019-05-03T02:23:26.728Z,12.87
2019-05-03T02:25:59.253Z,9.37
2019-05-03T02:28:32.700Z,15.27
2019-05-03T02:31:04.783Z,17.00
2019-05-03T02:33:37.041Z,14.77
2019-05-03T02:36:09.732Z,16.83
2019-05-03T02:38:42.940Z,15.97
2019-05-03T02:41:15.732Z,11.33
2019-05-03T02:43:50.048Z,22.63
2019-05-03T02:46:56.272Z,15.17
2019-05-03T02:49:35.066Z,14.50
2019-05-03T02:52:06.702Z,15.50
2019-05-03T02:54:39.226Z,27.43
2019-05-03T02:57:10.633Z,27.30
2019-05-03T02:59:45.329Z,14.13
2019-05-03T03:02:17.240Z,21.17
2019-05-03T03:04:50.551Z,10.73
2019-05-03T03:07:25.810Z,17.57
2019-05-03T03:10:00.624Z,11.87
2019-05-03T03:12:35.519Z,10.37
2019-05-03T03:15:07.627Z,13.10
2019-05-03T03:17:42.154Z,15.60
2019-05-03T03:20:16.138Z,13.03
2019-05-03T03:22:51.971Z,15.33
2019-05-03T03:25:28.638Z,11.30
2019-05-03T03:28:05.321Z,16.27
2019-05-03T03:31:17.620Z,13.87
2019-05-03T03:33:47.947Z,10.67
2019-05-03T03:36:53.242Z,15.10
2019-05-03T03:38:55.454Z,12.27
2019-05-03T03:41:27.923Z,14.50
2019-05-03T03:44:00.865Z,12.23
2019-05-03T03:46:35.879Z,16.03
2019-05-03T03:49:08.740Z,6.67
2019-05-03T03:51:41.345Z,7.70
2019-05-03T03:54:16.433Z,10.27
2019-05-03T03:57:03.739Z,16.23
2019-05-03T03:59:32.345Z,10.33
2019-05-03T04:02:05.909Z,12.10
2019-05-03T04:04:38.003Z,12.10
2019-05-03T04:07:10.475Z,10.60
2019-05-03T04:09:45.383Z,9.57
2019-05-03T04:12:16.439Z,8.47
2019-05-03T04:15:00.130Z,10.53
2019-05-03T04:17:57.051Z,13.53
2019-05-03T04:20:35.991Z,8.83
2019-05-03T04:23:07.106Z,7.60
2019-05-03T04:25:40.904Z,8.60
2019-05-03T04:28:15.968Z,5.67
2019-05-03T04:30:47.790Z,8.33
2019-05-03T04:33:19.342Z,7.93
2019-05-03T04:35:51.512Z,9.83
2019-05-03T04:38:25.744Z,9.00
2019-05-03T04:40:56.418Z,6.00
2019-05-03T04:43:28.722Z,5.40
2019-05-03T04:46:10.385Z,5.53
2019-05-03T04:48:44.829Z,8.03
2019-05-03T04:51:16.690Z,15.00
2019-05-03T04:53:57.580Z,8.27
2019-05-03T04:56:30.571Z,10.63
2019-05-03T04:59:05.073Z,12.37
2019-05-03T05:01:35.954Z,6.33
2019-05-03T05:04:08.950Z,5.27
2019-05-03T05:06:40.549Z,7.20
2019-05-03T05:09:15.354Z,8.20
2019-05-03T05:11:46.840Z,5.43
2019-05-03T05:14:19.197Z,5.70
2019-05-03T05:16:50.754Z,3.90
2019-05-03T05:19:29.265Z,5.43
2019-05-03T05:22:06.080Z,12.03
2019-05-03T05:24:38.846Z,7.57
2019-05-03T05:27:34.655Z,5.03
2019-05-03T05:30:08.502Z,6.13
2019-05-03T05:32:40.013Z,3.73
2019-05-03T05:35:11.971Z,4.23
2019-05-03T05:37:44.474Z,4.15
2019-05-03T05:40:20.642Z,4.20
2019-05-03T05:42:54.440Z,5.95
2019-05-03T05:45:24.755Z,3.08
2019-05-03T05:48:02.232Z,3.65
2019-05-03T05:50:36.282Z,6.17
2019-05-03T05:53:09.099Z,18.95
2019-05-03T05:55:59.624Z,3.00
2019-05-03T05:58:35.214Z,19.37
2019-05-03T06:01:11.707Z,14.55
2019-05-03T06:03:44.881Z,4.90
2019-05-03T06:06:24.367Z,16.90
2019-05-03T06:09:06.724Z,4.25
2019-05-03T06:11:55.949Z,4.75
2019-05-03T06:14:31.549Z,11.50
2019-05-03T06:17:17.693Z,13.18
2019-05-03T06:20:27.253Z,12.50
2019-05-03T06:23:14.554Z,2.83
2019-05-03T06:25:47.294Z,5.22
2019-05-03T06:28:31.704Z,4.45
2019-05-03T06:31:10.270Z,3.98
2019-05-03T06:33:44.930Z,2.85
2019-05-03T06:36:17.122Z,2.27
2019-05-03T06:38:49.502Z,5.80
2019-05-03T06:41:21.063Z,3.95
2019-05-03T06:43:52.583Z,3.67
2019-05-03T06:46:45.652Z,6.50
2019-05-03T06:49:17.351Z,5.30
2019-05-03T06:51:49.974Z,2.97
2019-05-03T06:54:26.909Z,3.70
2019-05-03T06:57:00.105Z,2.20
2019-05-03T06:59:50.979Z,2.93
2019-05-03T07:02:47.259Z,2.77
2019-05-03T07:05:30.024Z,5.50
2019-05-03T07:08:07.876Z,4.23
2019-05-03T07:10:44.534Z,4.23
2019-05-03T07:13:16.222Z,6.20
2019-05-03T07:15:47.879Z,4.10
2019-05-03T07:18:20.234Z,3.53
2019-05-03T07:20:57.011Z,2.77
2019-05-03T07:23:29.967Z,4.07
2019-05-03T07:26:02.433Z,2.30
2019-05-03T07:28:46.344Z,2.70
2019-05-03T07:31:08.765Z,2.30
2019-05-03T07:33:41.121Z,3.07
2019-05-03T07:36:15.302Z,2.70
2019-05-03T07:38:48.155Z,5.97
2019-05-03T07:41:20.312Z,4.13
2019-05-03T07:43:51.838Z,2.80
2019-05-03T07:46:24.722Z,3.07
2019-05-03T07:48:56.488Z,3.50
2019-05-03T07:51:29.461Z,8.53
2019-05-03T07:54:00.962Z,10.90
2019-05-03T07:56:36.664Z,6.63
2019-05-03T07:59:09.364Z,7.23
2019-05-03T08:01:45.555Z,8.40
2019-05-03T08:04:18.033Z,4.27
2019-05-03T08:06:49.870Z,4.97
2019-05-03T08:09:21.847Z,21.70
2019-05-03T08:11:54.743Z,3.47
2019-05-03T08:14:27.027Z,11.50
2019-05-03T08:16:58.791Z,4.50
2019-05-03T08:19:30.350Z,3.60
2019-05-03T08:22:01.825Z,4.40
2019-05-03T08:24:34.603Z,6.20
2019-05-03T08:27:06.810Z,2.47
2019-05-03T08:29:38.980Z,12.67
2019-05-03T08:32:24.549Z,10.03
2019-05-03T08:35:30.749Z,11.73
2019-05-03T08:38:04.838Z,4.60
2019-05-03T08:40:41.524Z,6.40
2019-05-03T08:43:15.589Z,8.77
2019-05-03T08:45:46.968Z,8.63
2019-05-03T08:48:19.451Z,37.83
2019-05-03T08:50:50.965Z,76.63
2019-05-03T08:53:25.432Z,42.47
2019-05-03T08:55:56.017Z,57.13
2019-05-03T08:58:27.567Z,26.33
2019-05-03T09:00:59.134Z,12.67
2019-05-03T09:03:31.202Z,10.00
2019-05-03T09:06:04.650Z,7.33
2019-05-03T09:08:36.622Z,2.50
2019-05-03T09:11:12.662Z,3.37
2019-05-03T09:13:55.843Z,7.23
2019-05-03T09:16:27.409Z,4.67
2019-05-03T09:18:59.327Z,7.37
2019-05-03T09:21:30.996Z,3.47
2019-05-03T09:24:04.667Z,4.87
2019-05-03T09:26:37.279Z,6.17
2019-05-03T09:29:09.046Z,3.70
2019-05-03T09:31:40.735Z,9.77
2019-05-03T09:34:12.205Z,8.40
2019-05-03T09:36:44.841Z,10.33
2019-05-03T09:39:18.477Z,4.47
2019-05-03T09:41:50.058Z,6.50
2019-05-03T09:44:21.652Z,7.07
2019-05-03T09:46:55.004Z,6.37
2019-05-03T09:49:26.648Z,3.77
2019-05-03T09:51:59.484Z,7.47
2019-05-03T09:54:38.308Z,9.43
2019-05-03T09:57:09.904Z,8.70
2019-05-03T09:59:54.253Z,7.63
2019-05-03T10:02:15.217Z,3.30
2019-05-03T10:04:46.777Z,5.57
2019-05-03T10:07:19.530Z,11.67
2019-05-03T10:09:51.786Z,8.17
2019-05-03T10:12:25.817Z,8.17
2019-05-03T10:14:58.110Z,3.50
2019-05-03T10:17:51.314Z,5.33
2019-05-03T10:20:25.791Z,10.03
2019-05-03T10:23:00.228Z,2.83
2019-05-03T10:25:35.720Z,5.13
2019-05-03T10:28:06.993Z,7.37
2019-05-03T10:30:38.557Z,7.63
2019-05-03T10:33:15.716Z,5.67
2019-05-03T10:35:47.304Z,3.57
2019-05-03T10:38:18.814Z,2.90
2019-05-03T10:40:51.664Z,2.93
2019-05-03T10:43:24.786Z,1.60
2019-05-03T10:45:56.483Z,6.27
2019-05-03T10:48:28.364Z,2.87
2019-05-03T10:51:00.879Z,5.07
2019-05-03T10:53:38.549Z,1.50
2019-05-03T10:56:22.771Z,4.67
2019-05-03T10:59:02.172Z,8.73
2019-05-03T11:01:54.414Z,7.23
2019-05-03T11:04:27.206Z,2.13
2019-05-03T11:06:59.311Z,2.63
2019-05-03T11:09:30.985Z,6.83
2019-05-03T11:12:02.532Z,8.63
2019-05-03T11:14:35.148Z,12.00
2019-05-03T11:17:08.372Z,2.23
2019-05-03T11:19:40.574Z,3.10
2019-05-03T11:22:14.465Z,1.80
2019-05-03T11:24:46.160Z,3.03
2019-05-03T11:27:22.346Z,2.33
2019-05-03T11:29:55.572Z,2.10
2019-05-03T11:32:44.623Z,2.60
2019-05-03T11:35:44.678Z,2.47
2019-05-03T11:38:35.999Z,1.33
2019-05-03T11:41:07.434Z,3.23
2019-05-03T11:43:39.882Z,1.83
2019-05-03T11:46:11.381Z,1.90
2019-05-03T11:48:42.880Z,1.57
2019-05-03T11:51:15.226Z,1.77
2019-05-03T11:53:46.836Z,3.60
2019-05-03T11:56:18.235Z,3.47
2019-05-03T11:58:49.714Z,3.33
2019-05-03T12:01:25.680Z,1.83
2019-05-03T12:04:02.366Z,1.90
2019-05-03T12:06:36.812Z,2.30
2019-05-03T12:09:08.469Z,3.30
2019-05-03T12:11:41.290Z,2.30
2019-05-03T12:14:15.467Z,5.17
2019-05-03T12:17:22.512Z,3.23
2019-05-03T12:19:33.908Z,1.83
2019-05-03T12:22:06.993Z,2.00
2019-05-03T12:24:39.547Z,2.47
2019-05-03T12:27:12.144Z,3.63
2019-05-03T12:29:44.767Z,1.23
2019-05-03T12:32:18.032Z,2.40
2019-05-03T12:34:50.004Z,2.33
2019-05-03T12:37:21.628Z,2.90
2019-05-03T12:39:54.895Z,1.77
2019-05-03T12:42:28.303Z,4.87
2019-05-03T12:45:00.733Z,3.70
2019-05-03T12:47:34.677Z,2.70
2019-05-03T12:50:07.595Z,4.00
2019-05-03T12:52:49.730Z,1.63
2019-05-03T12:55:15.215Z,1.23
2019-05-03T12:57:47.258Z,1.03
2019-05-03T13:00:36.928Z,2.17
2019-05-03T13:03:24.640Z,2.50
2019-05-03T13:05:56.430Z,0.70
2019-05-03T13:08:35.012Z,1.20
2019-05-03T13:11:06.382Z,1.63
2019-05-03T13:13:37.858Z,1.80
2019-05-03T13:16:15.193Z,1.17
2019-05-03T13:18:47.091Z,1.13
2019-05-03T13:21:18.598Z,2.30
2019-05-03T13:23:51.025Z,0.73
2019-05-03T13:26:22.531Z,1.70
2019-05-03T13:28:55.358Z,2.83
2019-05-03T13:31:28.079Z,1.00
2019-05-03T13:33:59.937Z,1.70
2019-05-03T13:36:34.758Z,1.13
2019-05-03T13:39:13.349Z,6.33
2019-05-03T13:41:42.900Z,5.53
2019-05-03T13:44:15.701Z,2.03
2019-05-03T13:46:47.699Z,1.60
2019-05-03T13:49:19.184Z,5.47
2019-05-03T13:51:50.685Z,3.70
2019-05-03T13:54:25.528Z,3.17
2019-05-03T13:56:57.377Z,4.13
2019-05-03T13:59:29.460Z,1.37
2019-05-03T14:02:14.408Z,1.80
2019-05-03T14:04:48.668Z,3.43
2019-05-03T14:07:08.813Z,1.23
2019-05-03T14:09:41.089Z,1.70
2019-05-03T14:12:15.303Z,1.40
2019-05-03T14:14:56.632Z,0.73
2019-05-03T14:17:29.184Z,2.47
2019-05-03T14:20:19.715Z,1.50
2019-05-03T14:22:52.120Z,1.80
2019-05-03T14:25:24.668Z,1.23
2019-05-03T14:27:59.567Z,1.40
2019-05-03T14:30:30.428Z,1.40
2019-05-03T14:33:02.164Z,2.07
2019-05-03T14:35:34.634Z,3.40
2019-05-03T14:38:07.439Z,1.77
2019-05-03T14:40:38.902Z,2.40
2019-05-03T14:43:10.585Z,3.80
2019-05-03T14:45:42.257Z,1.33
2019-05-03T14:48:15.214Z,3.80
2019-05-03T14:50:46.883Z,2.53
2019-05-03T14:53:19.975Z,2.70
2019-05-03T14:55:58.543Z,3.00
2019-05-03T14:58:56.005Z,2.53
2019-05-03T15:01:36.815Z,2.23
2019-05-03T15:04:08.300Z,1.33
2019-05-03T15:06:40.919Z,1.10
2019-05-03T15:09:12.521Z,1.13
2019-05-03T15:11:45.297Z,3.33
2019-05-03T15:14:18.270Z,2.37
2019-05-03T15:16:49.913Z,1.57
2019-05-03T15:19:22.692Z,2.47
2019-05-03T15:21:54.749Z,2.50
2019-05-03T15:24:27.337Z,1.43
2019-05-03T15:27:00.118Z,4.00
2019-05-03T15:29:31.975Z,2.23
2019-05-03T15:32:05.247Z,2.87
2019-05-03T15:34:37.358Z,1.70
2019-05-03T15:37:10.495Z,1.53
2019-05-03T15:39:42.339Z,1.90
2019-05-03T15:42:14.588Z,2.70
2019-05-03T15:45:02.085Z,1.57
2019-05-03T15:47:38.510Z,1.47
2019-05-03T15:50:12.811Z,1.90
2019-05-03T15:52:44.532Z,2.20
2019-05-03T15:55:16.362Z,2.43
2019-05-03T15:57:48.354Z,1.47
2019-05-03T16:00:20.380Z,3.53
2019-05-03T16:02:51.963Z,3.30
2019-05-03T16:05:25.086Z,2.70
2019-05-03T16:07:56.711Z,1.70
2019-05-03T16:10:28.219Z,13.53
2019-05-03T16:13:00.009Z,2.63
2019-05-03T16:15:31.443Z,0.97
2019-05-03T16:18:05.028Z,1.13
2019-05-03T16:20:39.157Z,2.53
2019-05-03T16:23:09.330Z,0.97
2019-05-03T16:25:41.090Z,3.07
2019-05-03T16:28:17.522Z,1.13
2019-05-03T16:31:00.333Z,2.77
2019-05-03T16:33:31.999Z,1.90
2019-05-03T16:36:05.497Z,2.10
2019-05-03T16:38:37.159Z,3.50
2019-05-03T16:41:08.731Z,6.70
2019-05-03T16:43:40.266Z,6.67
2019-05-03T16:46:11.818Z,4.13
2019-05-03T16:48:44.815Z,2.10
2019-05-03T16:51:17.424Z,3.13
2019-05-03T16:53:49.552Z,2.90
2019-05-03T16:56:21.296Z,3.00
2019-05-03T16:58:52.719Z,1.37
2019-05-03T17:01:24.523Z,3.80
2019-05-03T17:04:01.342Z,2.37
2019-05-03T17:06:50.396Z,3.33
2019-05-03T17:09:40.818Z,5.97
2019-05-03T17:12:15.294Z,3.37
2019-05-03T17:14:47.313Z,3.13
2019-05-03T17:17:18.814Z,2.07
2019-05-03T17:19:50.347Z,3.80
2019-05-03T17:22:22.074Z,6.07
2019-05-03T17:24:54.267Z,6.40
2019-05-03T17:27:25.786Z,6.57
2019-05-03T17:29:57.338Z,6.97
2019-05-03T17:32:29.444Z,5.63
2019-05-03T17:35:01.255Z,7.53
2019-05-03T17:37:34.693Z,7.97
2019-05-03T17:40:17.879Z,14.77
2019-05-03T17:43:23.641Z,9.60
2019-05-03T17:45:56.868Z,10.47
2019-05-03T17:48:29.641Z,12.90
2019-05-03T17:51:01.396Z,22.07
2019-05-03T17:53:50.030Z,23.67
2019-05-03T17:56:38.404Z,25.13
2019-05-03T17:59:15.970Z,17.10
2019-05-03T18:02:24.225Z,26.07
2019-05-03T18:05:17.626Z,46.00
2019-05-03T18:08:26.263Z,45.47
2019-05-03T18:11:05.588Z,47.70
2019-05-03T18:13:37.299Z,33.77
2019-05-03T18:16:10.050Z,15.23
2019-05-03T18:18:45.349Z,10.50
2019-05-03T18:21:17.285Z,13.40
2019-05-03T18:23:48.779Z,12.37
2019-05-03T18:26:20.586Z,10.07
2019-05-03T18:28:52.114Z,16.47
2019-05-03T18:31:25.039Z,15.90
2019-05-03T18:33:56.694Z,16.30
2019-05-03T18:36:29.052Z,10.37
2019-05-03T18:39:00.610Z,8.67
2019-05-03T18:41:34.509Z,9.37
2019-05-03T18:44:16.938Z,7.63
2019-05-03T18:46:51.943Z,6.87
2019-05-03T18:49:24.788Z,8.70
2019-05-03T18:51:56.796Z,8.67
2019-05-03T18:54:28.575Z,12.37
2019-05-03T18:57:00.351Z,9.77
2019-05-03T18:59:34.719Z,12.23
2019-05-03T19:02:08.298Z,4.77
2019-05-03T19:04:50.373Z,11.97
2019-05-03T19:07:40.964Z,11.43
2019-05-03T19:10:27.723Z,10.07
2019-05-03T19:13:11.954Z,10.03
2019-05-03T19:15:43.677Z,10.03
2019-05-03T19:18:26.782Z,8.27
2019-05-03T19:20:58.657Z,7.30
2019-05-03T19:23:31.689Z,9.07
2019-05-03T19:26:03.172Z,12.17
2019-05-03T19:28:35.471Z,11.33
2019-05-03T19:31:07.348Z,8.53
2019-05-03T19:33:38.871Z,14.47
2019-05-03T19:36:10.491Z,8.10
2019-05-03T19:38:42.259Z,11.37
2019-05-03T19:41:16.047Z,8.47
2019-05-03T19:43:47.728Z,10.13
2019-05-03T19:46:19.240Z,12.80
2019-05-03T19:48:51.002Z,8.20
2019-05-03T19:51:22.548Z,9.00
2019-05-03T19:53:55.382Z,11.23
2019-05-03T19:56:27.230Z,9.83
2019-05-03T19:59:04.623Z,8.00
2019-05-03T20:02:01.249Z,13.30
2019-05-03T20:05:08.137Z,10.27
2019-05-03T20:07:59.217Z,10.07
2019-05-03T20:10:35.139Z,7.23
2019-05-03T20:13:08.089Z,9.53
2019-05-03T20:15:39.648Z,11.57
2019-05-03T20:18:11.775Z,9.33
2019-05-03T20:20:44.659Z,11.73
2019-05-03T20:23:16.609Z,11.03
2019-05-03T20:25:48.207Z,14.97
2019-05-03T20:28:20.148Z,12.17
2019-05-03T20:30:51.615Z,10.13
2019-05-03T20:33:24.623Z,10.00
2019-05-03T20:35:56.343Z,13.67
2019-05-03T20:38:28.815Z,10.67
2019-05-03T20:41:01.826Z,14.77
2019-05-03T20:43:54.895Z,10.80
2019-05-03T20:46:47.568Z,14.10
2019-05-03T20:49:19.039Z,13.73
2019-05-03T20:51:51.410Z,13.93
2019-05-03T20:54:22.923Z,19.03
2019-05-03T20:56:54.838Z,18.17
2019-05-03T20:59:28.030Z,15.80
2019-05-03T21:01:59.962Z,15.07
2019-05-03T21:04:31.730Z,17.07
2019-05-03T21:07:04.676Z,14.33
2019-05-03T21:09:37.202Z,12.40
2019-05-03T21:12:09.523Z,13.30
2019-05-03T21:14:41.638Z,16.13
2019-05-03T21:17:29.736Z,11.40
2019-05-03T21:20:26.710Z,11.07
2019-05-03T21:22:58.442Z,12.63
2019-05-03T21:25:50.792Z,12.50
2019-05-03T21:28:10.096Z,10.57
2019-05-03T21:30:41.592Z,15.70
2019-05-03T21:33:13.106Z,9.93
2019-05-03T21:35:45.367Z,11.47
2019-05-03T21:38:17.908Z,10.83
2019-05-03T21:40:50.084Z,11.63
2019-05-03T21:43:21.566Z,9.70
2019-05-03T21:45:59.133Z,12.10
2019-05-03T21:48:55.996Z,8.43
2019-05-03T21:51:28.304Z,13.60
2019-05-03T21:54:01.266Z,10.90
2019-05-03T21:56:35.433Z,10.63
2019-05-03T21:59:06.186Z,8.67
2019-05-03T22:01:40.597Z,9.37
2019-05-03T22:04:12.357Z,7.97
2019-05-03T22:06:44.993Z,9.67
2019-05-03T22:09:16.757Z,9.57
2019-05-03T22:11:48.296Z,11.33
2019-05-03T22:14:37.961Z,8.53
2019-05-03T22:17:28.320Z,12.70
2019-05-03T22:20:06.419Z,8.57
2019-05-03T22:22:50.359Z,8.77
2019-05-03T22:25:25.916Z,10.10
2019-05-03T22:27:57.553Z,8.33
2019-05-03T22:30:29.402Z,7.13
2019-05-03T22:33:01.472Z,9.57
2019-05-03T22:35:35.275Z,7.47
2019-05-03T22:38:06.870Z,7.83
2019-05-03T22:40:38.799Z,7.13
2019-05-03T22:43:10.439Z,6.67
2019-05-03T22:45:41.930Z,6.47
2019-05-03T22:48:14.600Z,8.33
2019-05-03T22:50:46.017Z,6.67
2019-05-03T22:53:17.676Z,10.00
2019-05-03T22:55:49.127Z,8.23
2019-05-03T22:58:20.577Z,10.43
2019-05-03T23:00:54.942Z,7.80
2019-05-03T23:03:26.986Z,9.50
2019-05-03T23:05:58.676Z,9.47
2019-05-03T23:08:30.214Z,9.87
2019-05-03T23:11:01.672Z,7.93
2019-05-03T23:13:33.150Z,7.37
2019-05-03T23:16:05.162Z,8.17
2019-05-03T23:18:36.783Z,12.10
2019-05-03T23:21:15.210Z,12.57
2019-05-03T23:23:50.678Z,10.53
2019-05-03T23:26:22.775Z,10.47
2019-05-03T23:28:55.119Z,7.70
2019-05-03T23:31:27.923Z,9.37
2019-05-03T23:33:59.904Z,16.17
2019-05-03T23:36:33.698Z,12.27
2019-05-03T23:39:07.103Z,14.40
2019-05-03T23:41:39.237Z,12.07
2019-05-03T23:44:11.422Z,14.10
2019-05-03T23:47:08.937Z,11.53
2019-05-03T23:49:40.721Z,14.17
2019-05-03T23:52:30.996Z,10.90
2019-05-03T23:55:05.757Z,12.60
2019-05-03T23:57:37.398Z,14.33
